Time;durP1;ratioP1;P1;durP2;ratioP2;P2;SDS_P1;SDS_P2;PMS_P1;PMS_P2;Temp;Humidity;BMP_temperature;BMP_pressure;BME280_temperature;BME280_humidity;BME280_pressure;Samples;Min_cycle;Max_cycle;Signal;HPM_P1;HPM_P2
2022/12/08 00:04:16;;;;;;;2.00;1.10;;;;;;;12.82;82.67;99088.06;10342923;28;96686;-86
2022/12/08 00:09:24;;;;;;;1.90;1.25;;;;;;;12.84;82.48;99090.59;10342891;28;96601;-87
2022/12/08 00:14:36;;;;;;;2.28;1.50;;;;;;;12.84;82.28;99085.31;10343496;28;97374;-86
2022/12/08 00:19:46;;;;;;;1.95;1.40;;;;;;;12.76;82.51;99072.63;10343593;28;97123;-86
2022/12/08 00:24:56;;;;;;;3.28;1.38;;;;;;;12.76;82.43;99069.97;10342961;28;96779;-86
2022/12/08 00:30:05;;;;;;;1.60;1.10;;;;;;;12.81;81.88;99096.91;10341575;28;96595;-85
2022/12/08 00:35:09;;;;;;;1.25;0.93;;;;;;;12.85;81.62;99073.78;10342010;28;96553;-84
2022/12/08 00:40:17;;;;;;;2.15;1.15;;;;;;;12.79;81.77;99037.28;10341959;28;96621;-85
2022/12/08 00:45:24;;;;;;;1.23;0.90;;;;;;;12.76;81.63;98982.88;10341943;28;96561;-85
2022/12/08 00:50:33;;;;;;;1.38;1.05;;;;;;;12.67;82.46;98999.34;10342124;28;96651;-85
2022/12/08 00:55:38;;;;;;;1.55;1.05;;;;;;;12.67;82.30;98990.59;10341650;28;96745;-85
2022/12/08 01:00:46;;;;;;;1.23;0.88;;;;;;;12.67;81.88;99001.16;10340543;28;96541;-84
2022/12/08 01:05:51;;;;;;;1.85;1.10;;;;;;;12.71;81.34;98992.06;10341744;28;96653;-84
2022/12/08 01:10:56;;;;;;;1.50;1.00;;;;;;;12.70;81.41;98985.09;10341295;28;96652;-84
2022/12/08 01:16:05;;;;;;;1.27;1.00;;;;;;;12.68;81.90;98992.28;10340857;28;96527;-84
2022/12/08 01:21:11;;;;;;;1.33;1.10;;;;;;;12.63;82.10;98971.44;10340473;28;96640;-86
2022/12/08 01:26:19;;;;;;;2.28;1.40;;;;;;;12.61;82.41;98959.28;10340513;28;96852;-85
2022/12/08 01:31:30;;;;;;;3.20;0.98;;;;;;;12.60;82.72;98963.75;10340095;28;97627;-86
2022/12/08 01:36:38;;;;;;;2.55;1.20;;;;;;;12.59;82.69;98969.94;10340187;28;96760;-85
2022/12/08 01:42:00;;;;;;;2.30;1.10;;;;;;;12.50;83.05;98949.47;10340665;28;96768;-86
2022/12/08 01:47:09;;;;;;;2.45;1.10;;;;;;;12.42;83.33;98941.25;10340199;28;97193;-86
2022/12/08 01:52:23;;;;;;;1.77;1.00;;;;;;;12.40;83.84;98922.88;10340024;28;96720;-86
2022/12/08 01:57:34;;;;;;;2.55;1.10;;;;;;;12.39;83.76;98921.16;10339779;28;97347;-86
2022/12/08 02:02:50;;;;;;;1.50;1.00;;;;;;;12.43;83.43;98940.28;10340239;28;96681;-86
2022/12/08 02:07:56;;;;;;;1.35;0.80;;;;;;;12.38;83.69;98950.28;10338943;28;97489;-86
2022/12/08 02:13:02;;;;;;;1.45;0.80;;;;;;;12.33;84.06;98926.03;10338300;28;97339;-85
2022/12/08 02:18:32;;;;;;;1.45;0.85;;;;;;;12.31;84.47;98928.78;10337090;28;97455;-86
2022/12/08 02:23:49;;;;;;;1.08;0.90;;;;;;;12.34;84.00;98931.19;10338478;28;96684;-86
2022/12/08 02:29:15;;;;;;;1.67;0.88;;;;;;;12.34;84.34;98936.47;10353037;28;97021;-85
2022/12/08 02:34:37;;;;;;;0.95;0.75;;;;;;;12.39;83.99;98949.38;10262982;28;96690;-86
2022/12/08 02:39:53;;;;;;;1.42;1.00;;;;;;;12.34;84.63;98940.91;10256943;28;96552;-86
2022/12/08 02:45:02;;;;;;;1.60;0.87;;;;;;;12.35;84.64;98916.22;10256892;28;97093;-85
2022/12/08 02:50:12;;;;;;;1.17;0.75;;;;;;;12.40;84.36;98940.50;10256883;28;96703;-85
2022/12/08 02:55:34;;;;;;;1.00;0.85;;;;;;;12.40;83.85;98936.06;10256967;28;96860;-85
2022/12/08 03:00:54;;;;;;;1.88;0.85;;;;;;;12.38;83.70;98828.94;10256223;28;96859;-86
2022/12/08 03:06:13;;;;;;;0.82;0.60;;;;;;;12.42;83.67;98807.53;10257357;28;96873;-85
2022/12/08 03:11:25;;;;;;;2.03;0.70;;;;;;;12.47;83.76;98702.53;10254640;28;96663;-84
2022/12/08 03:16:32;;;;;;;0.50;0.50;;;;;;;12.50;83.63;98717.28;10255963;28;96719;-85
2022/12/08 03:21:49;;;;;;;1.65;0.90;;;;;;;12.53;83.57;98728.47;10256743;28;96716;-84
2022/12/08 03:26:58;;;;;;;0.98;0.60;;;;;;;12.62;82.27;98723.50;10260852;28;97005;-83
2022/12/08 03:32:11;;;;;;;0.85;0.70;;;;;;;12.63;82.32;98735.72;10307366;28;96846;-84
2022/12/08 03:37:22;;;;;;;0.82;0.63;;;;;;;12.57;82.28;98736.19;10343919;28;96633;-84
2022/12/08 03:42:27;;;;;;;0.90;0.70;;;;;;;12.60;82.43;98731.53;10344340;28;96771;-85
2022/12/08 03:47:30;;;;;;;0.60;0.52;;;;;;;12.54;82.38;98701.16;10344927;28;96662;-83
2022/12/08 03:52:37;;;;;;;2.20;0.60;;;;;;;12.58;82.16;98712.31;10343695;28;96645;-84
2022/12/08 03:57:44;;;;;;;1.08;0.70;;;;;;;12.66;81.28;98717.91;10343706;28;96636;-84
2022/12/08 04:02:48;;;;;;;0.80;0.70;;;;;;;12.61;81.56;98690.97;10342398;28;97362;-84
2022/12/08 04:08:00;;;;;;;0.60;0.50;;;;;;;12.56;81.66;98674.66;10342985;28;96768;-83
2022/12/08 04:13:05;;;;;;;0.95;0.75;;;;;;;12.61;81.26;98693.63;10343446;28;96755;-84
2022/12/08 04:18:11;;;;;;;0.88;0.77;;;;;;;12.68;81.20;98697.53;10342946;28;96571;-83
2022/12/08 04:23:19;;;;;;;2.45;0.88;;;;;;;12.81;80.86;98685.09;10342475;28;96696;-84
2022/12/08 04:28:28;;;;;;;1.05;0.80;;;;;;;12.80;80.86;98707.19;10342581;28;96540;-84
2022/12/08 04:33:36;;;;;;;1.20;0.82;;;;;;;12.81;80.48;98708.03;10342629;28;96758;-84
2022/12/08 04:38:45;;;;;;;1.00;0.70;;;;;;;12.82;80.25;98718.50;10342219;28;96703;-84
2022/12/08 04:43:52;;;;;;;1.00;0.77;;;;;;;12.83;80.21;98695.56;10341825;28;96799;-84
2022/12/08 04:48:56;;;;;;;2.45;1.00;;;;;;;12.87;79.94;98681.19;10342165;28;96686;-84
2022/12/08 04:54:03;;;;;;;1.20;0.80;;;;;;;12.89;79.94;98680.13;10340754;28;97077;-84
2022/12/08 04:59:07;;;;;;;0.88;0.70;;;;;;;12.93;80.15;98676.28;10341526;28;96731;-83
2022/12/08 05:04:12;;;;;;;1.33;0.70;;;;;;;12.98;79.44;98682.06;10341904;28;96795;-84
2022/12/08 05:09:21;;;;;;;0.63;0.55;;;;;;;12.96;79.22;98670.81;10341011;28;96762;-84
2022/12/08 05:14:25;;;;;;;2.53;1.10;;;;;;;12.99;79.26;98670.56;10340946;28;96657;-83
2022/12/08 05:19:30;;;;;;;0.87;0.77;;;;;;;13.01;79.59;98678.38;10340762;28;96723;-84
2022/12/08 05:24:38;;;;;;;0.75;0.70;;;;;;;13.00;79.13;98677.50;10377502;28;96816;-84
2022/12/08 05:29:49;;;;;;;;;;;;;;;12.94;79.28;98670.06;10382706;28;96824;-84
2022/12/08 05:34:59;;;;;;;1.45;1.05;;;;;;;13.02;79.09;98662.41;10382592;28;96583;-83
2022/12/08 05:40:10;;;;;;;1.23;0.90;;;;;;;13.04;78.61;98657.84;10356294;28;96839;-83
2022/12/08 05:45:18;;;;;;;1.35;0.70;;;;;;;13.04;78.66;98651.72;10339117;28;96496;-84
2022/12/08 05:50:26;;;;;;;1.10;0.80;;;;;;;12.99;78.82;98628.31;10338840;28;96663;-83
2022/12/08 05:55:34;;;;;;;1.00;0.90;;;;;;;13.00;78.84;98629.16;10340234;28;96717;-84
2022/12/08 06:00:41;;;;;;;3.28;0.82;;;;;;;13.05;78.33;98622.56;10339901;28;96917;-84
2022/12/08 06:05:47;;;;;;;0.90;0.77;;;;;;;13.04;78.39;98605.03;10339629;28;96976;-84
2022/12/08 06:11:00;;;;;;;1.58;1.00;;;;;;;13.08;78.33;98600.38;10338906;28;97431;-84
2022/12/08 06:16:09;;;;;;;0.90;0.75;;;;;;;13.07;78.56;98583.69;10380024;28;96615;-83
2022/12/08 06:21:18;;;;;;;0.68;0.68;;;;;;;13.09;78.21;98563.28;10381045;28;96909;-83
2022/12/08 06:26:34;;;;;;;0.77;0.70;;;;;;;13.09;77.62;98584.41;10380326;28;96563;-83
2022/12/08 06:31:39;;;;;;;0.70;0.60;;;;;;;13.13;77.46;98595.59;10350261;28;97361;-84
2022/12/08 06:36:47;;;;;;;0.82;0.60;;;;;;;13.15;77.42;98591.88;10338115;28;96813;-84
2022/12/08 06:47:18;;;;;;;0.90;0.52;;;;;;;13.06;77.96;98613.69;10338720;28;96718;-83
2022/12/08 06:52:28;;;;;;;0.95;0.65;;;;;;;13.00;78.59;98613.31;10338432;28;96647;-84
2022/12/08 06:57:36;;;;;;;1.95;0.80;;;;;;;12.99;78.57;98607.19;10337950;28;96645;-83
2022/12/08 07:02:43;;;;;;;0.60;0.60;;;;;;;12.97;78.73;98610.88;10344190;28;96723;-83
2022/12/08 07:07:47;;;;;;;2.13;0.77;;;;;;;13.05;78.60;98630.47;10344823;28;96652;-84
2022/12/08 07:13:03;;;;;;;0.82;0.60;;;;;;;13.10;78.31;98625.72;10345716;28;96723;-84
2022/12/08 07:18:07;;;;;;;1.33;0.70;;;;;;;13.12;78.21;98620.31;10344559;28;96542;-83
2022/12/08 07:23:12;;;;;;;1.30;0.87;;;;;;;13.16;78.34;98632.31;10371181;28;96738;-83
2022/12/08 07:28:34;;;;;;;1.50;0.70;;;;;;;13.15;78.21;98623.56;10384784;28;96928;-84
2022/12/08 07:33:42;;;;;;;0.90;0.68;;;;;;;13.19;78.18;98629.47;10385379;28;96645;-84
2022/12/08 07:38:51;;;;;;;0.75;0.60;;;;;;;13.20;77.66;98628.50;10362364;28;96726;-84
2022/12/08 07:43:59;;;;;;;0.80;0.60;;;;;;;13.14;78.27;98627.16;10344077;28;96573;-84
2022/12/08 07:49:03;;;;;;;1.10;0.77;;;;;;;13.13;78.68;98627.28;10343845;28;97176;-84
2022/12/08 07:54:12;;;;;;;1.87;0.80;;;;;;;13.07;78.70;98640.97;10344252;28;96611;-84
2022/12/08 07:59:20;;;;;;;2.38;1.25;;;;;;;13.06;79.13;98653.31;10343434;28;96952;-85
2022/12/08 08:04:27;;;;;;;1.05;0.60;;;;;;;13.21;77.98;98643.38;10344362;28;96843;-84
2022/12/08 08:09:31;;;;;;;0.82;0.68;;;;;;;13.27;77.45;98635.84;10343068;28;97120;-83
2022/12/08 08:14:41;;;;;;;1.05;0.60;;;;;;;13.32;77.38;98623.13;10342643;28;96552;-84
2022/12/08 08:19:47;;;;;;;1.27;0.50;;;;;;;13.36;77.22;98640.41;10341886;28;96548;-83
2022/12/08 08:24:56;;;;;;;0.80;0.60;;;;;;;13.38;77.09;98635.03;10342579;28;96712;-83
2022/12/08 08:30:04;;;;;;;1.50;0.80;;;;;;;13.40;77.05;98635.72;10358586;28;96744;-84
2022/12/08 08:35:17;;;;;;;1.30;0.80;;;;;;;13.39;77.03;98634.91;10383425;28;96733;-84
2022/12/08 08:40:27;;;;;;;1.20;0.80;;;;;;;13.52;77.17;98637.44;10383311;28;96707;-84
2022/12/08 08:45:33;;;;;;;0.85;0.70;;;;;;;13.62;76.72;98636.59;10371109;28;96680;-84
2022/12/08 08:50:40;;;;;;;0.77;0.77;;;;;;;13.71;76.40;98632.41;10342034;28;96649;-84
2022/12/08 08:55:49;;;;;;;1.25;0.80;;;;;;;13.80;76.10;98636.97;10371464;28;98307;-84
2022/12/08 09:00:56;;;;;;;1.88;1.02;;;;;;;13.85;76.35;98632.16;10383110;28;96880;-84
2022/12/08 09:06:01;;;;;;;1.17;0.88;;;;;;;13.84;76.23;98627.00;10342171;28;96656;-84
2022/12/08 09:11:08;;;;;;;1.20;0.88;;;;;;;13.89;76.50;98630.13;10340321;28;96618;-84
2022/12/08 09:16:15;;;;;;;2.10;1.10;;;;;;;13.91;76.51;98628.19;10341180;28;96950;-84
2022/12/08 09:21:25;;;;;;;1.38;0.90;;;;;;;14.03;75.57;98630.75;10361004;28;96702;-84
2022/12/08 09:26:29;;;;;;;2.22;1.00;;;;;;;14.20;75.71;98634.69;10381961;28;96713;-84
2022/12/08 09:31:39;;;;;;;1.30;1.10;;;;;;;14.47;74.50;98640.44;10381555;28;96758;-84
2022/12/08 09:36:44;;;;;;;1.80;1.00;;;;;;;14.66;73.67;98649.38;10381692;28;96819;-84
2022/12/08 09:41:54;;;;;;;1.30;1.00;;;;;;;14.91;73.65;98660.63;10381395;28;97231;-84
2022/12/08 09:47:06;;;;;;;1.90;1.30;;;;;;;14.74;73.28;98664.66;10382579;28;96765;-84
2022/12/08 09:52:21;;;;;;;1.73;1.10;;;;;;;14.70;74.04;98661.41;10380308;28;96683;-84
2022/12/08 09:57:27;;;;;;;1.40;1.00;;;;;;;14.67;73.35;98668.78;10380838;28;97045;-84
2022/12/08 10:02:34;;;;;;;2.20;1.30;;;;;;;14.66;73.31;98675.03;10380344;28;96983;-84
2022/12/08 10:07:49;;;;;;;1.80;1.17;;;;;;;14.71;73.01;98671.03;10381215;28;96578;-84
2022/12/08 10:13:00;;;;;;;3.47;1.30;;;;;;;14.97;72.64;98671.56;10379663;28;96721;-84
2022/12/08 10:18:23;;;;;;;1.52;1.30;;;;;;;15.16;72.07;98689.44;10379579;28;97595;-84
2022/12/08 10:23:36;;;;;;;2.72;1.40;;;;;;;15.25;71.79;98696.63;10338561;28;96664;-85
2022/12/08 10:28:40;;;;;;;1.67;1.20;;;;;;;15.35;71.67;98694.91;10359915;28;96824;-84
2022/12/08 10:33:58;;;;;;;2.08;1.23;;;;;;;15.23;71.36;98687.94;10378711;28;96799;-84
2022/12/08 10:39:04;;;;;;;2.88;1.30;;;;;;;15.44;71.28;98681.72;10379988;28;96698;-84
2022/12/08 10:44:16;;;;;;;4.30;1.90;;;;;;;15.54;70.27;98681.78;10378605;28;98001;-84
2022/12/08 10:49:31;;;;;;;1.63;1.10;;;;;;;15.62;70.05;98674.88;10379165;28;96731;-84
2022/12/08 10:54:37;;;;;;;2.23;1.30;;;;;;;15.58;70.73;98664.66;10378635;28;96711;-85
2022/12/08 10:59:44;;;;;;;2.05;1.50;;;;;;;15.45;70.72;98666.66;10379544;28;96761;-84
2022/12/08 11:05:01;;;;;;;2.03;1.20;;;;;;;15.16;71.04;98663.78;10378038;28;96851;-84
2022/12/08 11:10:07;;;;;;;2.95;1.40;;;;;;;15.08;71.58;98646.84;10378941;28;96731;-84
2022/12/08 11:15:24;;;;;;;3.47;1.70;;;;;;;14.98;72.05;98638.81;10378292;28;96610;-84
2022/12/08 11:20:39;;;;;;;2.58;1.52;;;;;;;15.02;72.42;98636.75;10371072;28;97965;-84
2022/12/08 11:25:43;;;;;;;3.25;1.52;;;;;;;15.02;72.42;98620.84;10378886;28;96763;-84
2022/12/08 11:30:50;;;;;;;2.37;1.60;;;;;;;15.25;71.94;98617.13;10378194;28;96895;-84
2022/12/08 11:36:12;;;;;;;4.00;1.65;;;;;;;15.16;71.87;98616.09;10362798;28;96697;-84
2022/12/08 11:41:26;;;;;;;2.05;1.40;;;;;;;15.32;71.19;98613.84;10337368;28;96760;-85
2022/12/08 11:47:11;;;;;;;2.30;1.50;;;;;;;15.45;71.35;98616.28;10351518;28;96739;-94
2022/12/08 11:52:27;;;;;;;2.17;1.80;;;;;;;15.40;71.09;98598.13;10316339;28;97021;-88
2022/12/08 11:57:31;;;;;;;2.13;1.73;;;;;;;15.52;70.63;98597.09;10367309;28;96730;-81
2022/12/08 12:02:41;;;;;;;2.87;1.60;;;;;;;15.51;70.76;98589.28;10364996;28;98734;-82
2022/12/08 12:08:06;;;;;;;2.13;1.70;;;;;;;15.53;70.63;98595.25;10380281;27;97318;-89
2022/12/08 12:13:26;;;;;;;2.20;1.60;;;;;;;15.53;70.99;98592.59;10377275;27;96794;-86
2022/12/08 12:18:52;;;;;;;2.28;1.52;;;;;;;15.57;70.84;98589.56;10375262;27;96911;-83
2022/12/08 12:24:01;;;;;;;2.80;2.10;;;;;;;15.69;69.95;98575.25;10370592;28;97201;-88
2022/12/08 12:29:11;;;;;;;6.05;2.55;;;;;;;15.68;70.90;98562.94;10367212;28;96798;-84
2022/12/08 12:34:23;;;;;;;3.47;2.45;;;;;;;15.54;70.77;98578.41;10377179;28;99152;-78
2022/12/08 12:40:03;;;;;;;2.60;1.63;;;;;;;15.45;70.82;98580.03;10362582;27;98835;-77
2022/12/08 12:45:42;;;;;;;1.50;1.25;;;;;;;15.17;72.73;98562.13;10393472;27;96866;-77
2022/12/08 12:50:55;;;;;;;2.22;1.63;;;;;;;15.01;74.03;98560.91;10367403;28;97193;-80
2022/12/08 12:56:11;;;;;;;;;;;;;;;;;;;;;
2022/12/08 13:02:02;;;;;;;4.22;2.10;;;;;;;14.70;75.90;98575.84;10375631;27;97788;-80
2022/12/08 13:07:06;;;;;;;4.32;2.53;;;;;;;14.77;76.47;98590.25;10385892;27;96952;-80
2022/12/08 13:12:23;;;;;;;7.53;3.90;;;;;;;14.59;77.68;98597.09;10395529;27;96713;-81
2022/12/08 13:17:30;;;;;;;7.53;3.10;;;;;;;14.65;77.86;98559.50;10395174;27;96604;-79
2022/12/08 13:23:11;;;;;;;9.15;4.90;;;;;;;14.62;79.17;98549.19;10397769;27;96974;-80
2022/12/08 13:28:27;;;;;;;5.10;3.22;;;;;;;14.62;78.70;98544.72;10399716;28;98500;-80
2022/12/08 13:33:44;;;;;;;;;;;;;;;;;;;;;
2022/12/08 13:38:57;;;;;;;16.65;11.90;;;;;;;14.57;79.72;98541.63;10376291;28;99307;-82
2022/12/08 13:44:17;;;;;;;5.82;3.10;;;;;;;14.55;80.63;98529.47;10365644;28;97491;-81
2022/12/08 13:49:51;;;;;;;7.68;6.88;;;;;;;14.54;80.17;98519.88;10352589;28;96788;-82
2022/12/08 13:55:42;;;;;;;6.70;5.28;;;;;;;14.33;81.76;98508.41;10360775;28;96841;-83
2022/12/08 14:01:15;;;;;;;5.00;2.78;;;;;;;14.27;80.47;98491.22;10372930;28;96827;-83
2022/12/08 14:06:32;;;;;;;5.78;4.50;;;;;;;14.22;81.77;98490.75;10357820;28;96781;-82
2022/12/08 14:17:45;;;;;;;8.88;5.40;;;;;;;14.20;82.05;98484.75;10238131;28;97263;-79
2022/12/08 14:22:52;;;;;;;6.47;4.82;;;;;;;14.28;81.78;98460.31;11099041;22;98084;-84
2022/12/08 14:28:02;;;;;;;7.40;5.10;;;;;;;14.32;81.48;98459.06;10193617;28;96818;-85
2022/12/08 14:38:26;;;;;;;5.57;4.10;;;;;;;14.28;81.28;98445.25;10587573;22;98238;-78
2022/12/08 14:43:30;;;;;;;7.38;4.78;;;;;;;14.32;81.68;98452.00;10190750;28;96867;-77
2022/12/08 14:48:43;;;;;;;3.92;3.28;;;;;;;14.49;81.03;98463.81;10188267;28;96724;-77
2022/12/08 14:53:54;;;;;;;3.88;2.92;;;;;;;14.48;79.92;98446.25;10203921;28;97186;-78
2022/12/08 14:59:10;;;;;;;4.65;2.95;;;;;;;14.67;78.65;98443.72;10193260;28;96874;-77
2022/12/08 15:04:18;;;;;;;4.47;3.83;;;;;;;14.93;78.34;98439.72;10201018;28;97615;-77
2022/12/08 15:09:35;;;;;;;5.68;4.32;;;;;;;14.79;79.39;98442.69;10210847;28;96909;-78
2022/12/08 15:14:41;;;;;;;7.43;4.60;;;;;;;14.83;79.12;98444.94;10199356;28;99311;-77
2022/12/08 15:19:55;;;;;;;6.80;3.80;;;;;;;14.66;79.14;98452.66;10177676;28;96783;-78
2022/12/08 15:25:01;;;;;;;12.35;9.23;;;;;;;14.92;79.27;98453.09;10206466;28;96689;-78
2022/12/08 15:30:05;;;;;;;10.70;7.32;;;;;;;15.04;79.08;98458.19;10205895;28;96610;-78
2022/12/08 15:35:13;;;;;;;7.85;6.38;;;;;;;15.12;78.56;98462.78;10193957;28;99745;-78
2022/12/08 15:40:19;;;;;;;7.68;6.25;;;;;;;15.07;78.53;98475.59;10198957;28;97299;-78
2022/12/08 15:45:28;;;;;;;7.88;5.03;;;;;;;15.19;77.78;98482.50;10214151;28;99157;-79
2022/12/08 15:50:31;;;;;;;4.50;3.55;;;;;;;15.17;78.09;98481.78;10221004;28;97378;-80
2022/12/08 15:55:36;;;;;;;6.82;4.70;;;;;;;15.20;78.46;98481.53;10221934;28;96658;-79
2022/12/08 16:00:41;;;;;;;25.02;17.60;;;;;;;15.00;79.21;98496.47;10221635;28;96630;-79
2022/12/08 16:05:58;;;;;;;24.65;17.83;;;;;;;14.84;79.01;98498.75;10220507;28;96680;-79
2022/12/08 16:17:13;;;;;;;9.70;6.50;;;;;;;14.71;79.59;98511.34;10180482;28;96801;-79
2022/12/08 16:22:19;;;;;;;8.57;6.72;;;;;;;14.73;79.85;98512.88;10218390;28;96662;-79
2022/12/08 16:27:44;;;;;;;8.93;7.20;;;;;;;14.56;80.28;98512.59;10219895;28;97142;-79
2022/12/08 16:33:08;;;;;;;9.07;6.37;;;;;;;14.50;80.76;98516.63;10202186;28;96791;-79
2022/12/08 16:38:14;;;;;;;6.38;5.03;;;;;;;14.47;80.70;98505.47;10180172;28;96824;-79
2022/12/08 16:43:19;;;;;;;7.03;5.03;;;;;;;14.49;80.83;98511.44;10205712;28;97206;-79
2022/12/08 16:48:22;;;;;;;6.10;5.20;;;;;;;14.35;80.49;98525.81;10221136;28;97526;-79
2022/12/08 16:53:26;;;;;;;8.27;6.32;;;;;;;14.26;81.35;98518.66;10219729;28;96881;-79
2022/12/08 16:58:30;;;;;;;7.72;5.43;;;;;;;14.17;81.36;98523.84;10218870;28;96585;-79
2022/12/08 17:03:34;;;;;;;6.97;4.28;;;;;;;14.08;81.39;98528.06;10218865;28;97304;-79
2022/12/08 17:08:40;;;;;;;6.28;4.18;;;;;;;14.02;81.30;98531.22;10219194;28;97207;-79
2022/12/08 17:13:45;;;;;;;4.68;3.78;;;;;;;14.03;80.52;98538.19;10219416;28;97091;-79
2022/12/08 17:18:48;;;;;;;6.05;4.43;;;;;;;14.09;80.42;98537.69;10217992;28;96749;-79
2022/12/08 17:23:53;;;;;;;5.90;3.33;;;;;;;14.01;80.48;98541.88;10219103;28;96601;-79
2022/12/08 17:29:02;;;;;;;5.80;4.00;;;;;;;13.86;81.25;98537.84;10218541;28;96635;-79
2022/12/08 17:34:09;;;;;;;9.30;6.25;;;;;;;13.89;81.14;98546.34;10192831;28;97532;-84
